sensor_id;sensor_type;location;lat;lon;timestamp;P1;durP1;ratioP1;P2;durP2;ratioP2
18822;SDS011;9540;51.550;7.980;2022-12-07T00:01:48;228.43;;;60.90;;
18822;SDS011;9540;51.550;7.980;2022-12-07T00:04:16;236.77;;;59.00;;
18822;SDS011;9540;51.550;7.980;2022-12-07T00:06:46;276.70;;;60.47;;
18822;SDS011;9540;51.550;7.980;2022-12-07T00:09:17;211.10;;;58.23;;
18822;SDS011;9540;51.550;7.980;2022-12-07T00:11:44;248.27;;;61.83;;
18822;SDS011;9540;51.550;7.980;2022-12-07T00:14:16;238.20;;;61.90;;
18822;SDS011;9540;51.550;7.980;2022-12-07T00:16:44;209.33;;;61.20;;
18822;SDS011;9540;51.550;7.980;2022-12-07T00:19:11;214.07;;;60.67;;
18822;SDS011;9540;51.550;7.980;2022-12-07T00:21:39;224.27;;;62.40;;
18822;SDS011;9540;51.550;7.980;2022-12-07T00:24:06;210.43;;;60.17;;
18822;SDS011;9540;51.550;7.980;2022-12-07T00:26:34;197.00;;;59.33;;
18822;SDS011;9540;51.550;7.980;2022-12-07T00:29:04;208.63;;;60.43;;
18822;SDS011;9540;51.550;7.980;2022-12-07T00:31:34;169.83;;;53.20;;
18822;SDS011;9540;51.550;7.980;2022-12-07T00:34:04;168.93;;;54.67;;
18822;SDS011;9540;51.550;7.980;2022-12-07T00:36:32;168.17;;;51.90;;
18822;SDS011;9540;51.550;7.980;2022-12-07T00:38:59;159.63;;;50.23;;
18822;SDS011;9540;51.550;7.980;2022-12-07T00:41:27;168.47;;;48.73;;
18822;SDS011;9540;51.550;7.980;2022-12-07T00:43:55;138.87;;;47.90;;
18822;SDS011;9540;51.550;7.980;2022-12-07T00:46:23;140.80;;;45.70;;
18822;SDS011;9540;51.550;7.980;2022-12-07T00:48:52;156.27;;;45.77;;
18822;SDS011;9540;51.550;7.980;2022-12-07T00:51:21;145.03;;;46.13;;
18822;SDS011;9540;51.550;7.980;2022-12-07T00:53:50;144.07;;;44.27;;
18822;SDS011;9540;51.550;7.980;2022-12-07T00:56:19;139.23;;;44.80;;
18822;SDS011;9540;51.550;7.980;2022-12-07T00:58:51;138.07;;;44.27;;
18822;SDS011;9540;51.550;7.980;2022-12-07T01:01:19;133.90;;;44.80;;
18822;SDS011;9540;51.550;7.980;2022-12-07T01:03:46;141.03;;;44.37;;
18822;SDS011;9540;51.550;7.980;2022-12-07T01:06:15;141.90;;;47.13;;
18822;SDS011;9540;51.550;7.980;2022-12-07T01:08:43;114.77;;;41.83;;
18822;SDS011;9540;51.550;7.980;2022-12-07T01:11:12;130.33;;;44.33;;
18822;SDS011;9540;51.550;7.980;2022-12-07T01:13:41;131.93;;;46.10;;
18822;SDS011;9540;51.550;7.980;2022-12-07T01:16:09;123.60;;;42.57;;
18822;SDS011;9540;51.550;7.980;2022-12-07T01:18:38;142.30;;;45.40;;
18822;SDS011;9540;51.550;7.980;2022-12-07T01:21:06;130.43;;;44.20;;
18822;SDS011;9540;51.550;7.980;2022-12-07T01:23:37;144.93;;;44.97;;
18822;SDS011;9540;51.550;7.980;2022-12-07T01:26:06;129.13;;;44.40;;
18822;SDS011;9540;51.550;7.980;2022-12-07T01:28:36;127.73;;;42.47;;
18822;SDS011;9540;51.550;7.980;2022-12-07T01:31:05;129.50;;;45.10;;
18822;SDS011;9540;51.550;7.980;2022-12-07T01:33:36;132.37;;;46.50;;
18822;SDS011;9540;51.550;7.980;2022-12-07T01:36:04;150.00;;;47.77;;
18822;SDS011;9540;51.550;7.980;2022-12-07T01:38:32;130.40;;;47.30;;
18822;SDS011;9540;51.550;7.980;2022-12-07T01:41:01;145.50;;;47.87;;
18822;SDS011;9540;51.550;7.980;2022-12-07T01:43:29;136.63;;;43.97;;
18822;SDS011;9540;51.550;7.980;2022-12-07T01:45:57;134.90;;;44.87;;
18822;SDS011;9540;51.550;7.980;2022-12-07T01:48:26;141.93;;;45.97;;
18822;SDS011;9540;51.550;7.980;2022-12-07T01:50:59;117.43;;;42.20;;
18822;SDS011;9540;51.550;7.980;2022-12-07T01:53:30;119.87;;;40.33;;
18822;SDS011;9540;51.550;7.980;2022-12-07T01:56:02;118.13;;;42.93;;
18822;SDS011;9540;51.550;7.980;2022-12-07T01:58:30;125.80;;;42.80;;
18822;SDS011;9540;51.550;7.980;2022-12-07T02:00:58;127.10;;;43.07;;
18822;SDS011;9540;51.550;7.980;2022-12-07T02:03:27;117.80;;;42.33;;
18822;SDS011;9540;51.550;7.980;2022-12-07T02:05:58;120.40;;;43.20;;
18822;SDS011;9540;51.550;7.980;2022-12-07T02:08:26;137.10;;;43.60;;
18822;SDS011;9540;51.550;7.980;2022-12-07T02:10:54;134.93;;;43.40;;
18822;SDS011;9540;51.550;7.980;2022-12-07T02:13:23;141.43;;;43.23;;
18822;SDS011;9540;51.550;7.980;2022-12-07T02:15:58;117.03;;;41.77;;
18822;SDS011;9540;51.550;7.980;2022-12-07T02:18:44;126.73;;;42.13;;
18822;SDS011;9540;51.550;7.980;2022-12-07T02:21:24;126.37;;;41.97;;
18822;SDS011;9540;51.550;7.980;2022-12-07T02:24:08;119.40;;;42.30;;
18822;SDS011;9540;51.550;7.980;2022-12-07T02:29:56;126.10;;;41.07;;
18822;SDS011;9540;51.550;7.980;2022-12-07T02:32:27;118.67;;;41.80;;
18822;SDS011;9540;51.550;7.980;2022-12-07T02:35:09;112.40;;;41.20;;
18822;SDS011;9540;51.550;7.980;2022-12-07T02:37:39;108.07;;;39.20;;
18822;SDS011;9540;51.550;7.980;2022-12-07T02:40:09;121.00;;;41.93;;
18822;SDS011;9540;51.550;7.980;2022-12-07T02:42:43;121.60;;;40.90;;
18822;SDS011;9540;51.550;7.980;2022-12-07T02:45:15;134.10;;;43.77;;
18822;SDS011;9540;51.550;7.980;2022-12-07T02:47:46;122.70;;;43.53;;
18822;SDS011;9540;51.550;7.980;2022-12-07T02:50:19;116.83;;;41.83;;
18822;SDS011;9540;51.550;7.980;2022-12-07T02:52:47;111.23;;;40.00;;
18822;SDS011;9540;51.550;7.980;2022-12-07T02:55:15;120.60;;;43.13;;
18822;SDS011;9540;51.550;7.980;2022-12-07T02:57:49;130.53;;;44.17;;
18822;SDS011;9540;51.550;7.980;2022-12-07T03:00:37;122.53;;;41.17;;
18822;SDS011;9540;51.550;7.980;2022-12-07T03:03:18;117.90;;;42.43;;
18822;SDS011;9540;51.550;7.980;2022-12-07T03:05:49;140.10;;;45.67;;
18822;SDS011;9540;51.550;7.980;2022-12-07T03:08:27;130.07;;;42.80;;
18822;SDS011;9540;51.550;7.980;2022-12-07T03:11:02;137.13;;;43.77;;
18822;SDS011;9540;51.550;7.980;2022-12-07T03:13:33;129.77;;;43.20;;
18822;SDS011;9540;51.550;7.980;2022-12-07T03:16:08;127.70;;;42.63;;
18822;SDS011;9540;51.550;7.980;2022-12-07T03:18:42;135.27;;;45.73;;
18822;SDS011;9540;51.550;7.980;2022-12-07T03:21:13;132.03;;;44.33;;
18822;SDS011;9540;51.550;7.980;2022-12-07T03:23:44;142.33;;;44.90;;
18822;SDS011;9540;51.550;7.980;2022-12-07T03:26:15;122.03;;;43.93;;
18822;SDS011;9540;51.550;7.980;2022-12-07T03:28:46;146.30;;;46.00;;
18822;SDS011;9540;51.550;7.980;2022-12-07T03:31:19;130.53;;;43.60;;
18822;SDS011;9540;51.550;7.980;2022-12-07T03:33:54;130.03;;;44.77;;
18822;SDS011;9540;51.550;7.980;2022-12-07T03:36:27;126.00;;;43.17;;
18822;SDS011;9540;51.550;7.980;2022-12-07T03:39:01;125.53;;;42.33;;
18822;SDS011;9540;51.550;7.980;2022-12-07T03:41:35;137.83;;;44.63;;
18822;SDS011;9540;51.550;7.980;2022-12-07T03:44:04;134.93;;;43.27;;
18822;SDS011;9540;51.550;7.980;2022-12-07T03:46:37;140.77;;;43.97;;
18822;SDS011;9540;51.550;7.980;2022-12-07T03:49:11;124.20;;;40.83;;
18822;SDS011;9540;51.550;7.980;2022-12-07T03:51:45;129.90;;;41.87;;
18822;SDS011;9540;51.550;7.980;2022-12-07T03:54:19;137.70;;;44.37;;
18822;SDS011;9540;51.550;7.980;2022-12-07T03:56:51;141.57;;;44.53;;
18822;SDS011;9540;51.550;7.980;2022-12-07T03:59:19;140.67;;;45.10;;
18822;SDS011;9540;51.550;7.980;2022-12-07T04:01:52;143.53;;;43.27;;
18822;SDS011;9540;51.550;7.980;2022-12-07T04:04:21;159.03;;;46.60;;
18822;SDS011;9540;51.550;7.980;2022-12-07T04:06:48;134.57;;;42.70;;
18822;SDS011;9540;51.550;7.980;2022-12-07T04:09:16;143.53;;;42.67;;
18822;SDS011;9540;51.550;7.980;2022-12-07T04:11:44;138.63;;;42.73;;
18822;SDS011;9540;51.550;7.980;2022-12-07T04:14:11;152.53;;;45.27;;
18822;SDS011;9540;51.550;7.980;2022-12-07T04:16:47;143.57;;;43.40;;
18822;SDS011;9540;51.550;7.980;2022-12-07T04:19:18;143.30;;;42.97;;
18822;SDS011;9540;51.550;7.980;2022-12-07T04:21:47;130.23;;;40.20;;
18822;SDS011;9540;51.550;7.980;2022-12-07T04:24:14;127.57;;;41.70;;
18822;SDS011;9540;51.550;7.980;2022-12-07T04:26:42;136.73;;;40.17;;
18822;SDS011;9540;51.550;7.980;2022-12-07T04:29:10;129.73;;;41.17;;
18822;SDS011;9540;51.550;7.980;2022-12-07T04:31:38;127.63;;;41.70;;
18822;SDS011;9540;51.550;7.980;2022-12-07T04:34:05;121.10;;;40.00;;
18822;SDS011;9540;51.550;7.980;2022-12-07T04:36:34;121.53;;;39.13;;
18822;SDS011;9540;51.550;7.980;2022-12-07T04:39:02;122.27;;;38.33;;
18822;SDS011;9540;51.550;7.980;2022-12-07T04:41:29;110.87;;;36.67;;
18822;SDS011;9540;51.550;7.980;2022-12-07T04:43:57;117.53;;;37.90;;
18822;SDS011;9540;51.550;7.980;2022-12-07T04:46:26;123.63;;;38.07;;
18822;SDS011;9540;51.550;7.980;2022-12-07T04:48:54;112.17;;;38.47;;
18822;SDS011;9540;51.550;7.980;2022-12-07T04:51:23;106.10;;;37.77;;
18822;SDS011;9540;51.550;7.980;2022-12-07T04:53:53;115.80;;;37.47;;
18822;SDS011;9540;51.550;7.980;2022-12-07T04:56:21;112.47;;;37.57;;
18822;SDS011;9540;51.550;7.980;2022-12-07T04:58:50;103.10;;;37.27;;
18822;SDS011;9540;51.550;7.980;2022-12-07T05:01:19;106.57;;;36.23;;
18822;SDS011;9540;51.550;7.980;2022-12-07T05:03:47;113.17;;;38.17;;
18822;SDS011;9540;51.550;7.980;2022-12-07T05:06:15;112.53;;;37.33;;
18822;SDS011;9540;51.550;7.980;2022-12-07T05:08:42;118.17;;;39.40;;
18822;SDS011;9540;51.550;7.980;2022-12-07T05:11:11;116.83;;;37.80;;
18822;SDS011;9540;51.550;7.980;2022-12-07T05:14:00;109.43;;;37.83;;
18822;SDS011;9540;51.550;7.980;2022-12-07T05:16:28;103.60;;;39.07;;
18822;SDS011;9540;51.550;7.980;2022-12-07T05:18:55;114.30;;;37.37;;
18822;SDS011;9540;51.550;7.980;2022-12-07T05:21:22;104.33;;;37.67;;
18822;SDS011;9540;51.550;7.980;2022-12-07T05:23:49;106.13;;;38.73;;
18822;SDS011;9540;51.550;7.980;2022-12-07T05:26:18;116.23;;;38.57;;
18822;SDS011;9540;51.550;7.980;2022-12-07T05:28:45;100.70;;;37.40;;
18822;SDS011;9540;51.550;7.980;2022-12-07T05:31:15;101.80;;;36.17;;
18822;SDS011;9540;51.550;7.980;2022-12-07T05:33:43;97.53;;;35.67;;
18822;SDS011;9540;51.550;7.980;2022-12-07T05:36:10;101.80;;;36.40;;
18822;SDS011;9540;51.550;7.980;2022-12-07T05:38:37;98.00;;;36.13;;
18822;SDS011;9540;51.550;7.980;2022-12-07T05:41:05;102.50;;;36.47;;
18822;SDS011;9540;51.550;7.980;2022-12-07T05:43:54;88.57;;;33.77;;
18822;SDS011;9540;51.550;7.980;2022-12-07T05:46:22;94.77;;;35.10;;
18822;SDS011;9540;51.550;7.980;2022-12-07T05:48:49;88.03;;;34.30;;
18822;SDS011;9540;51.550;7.980;2022-12-07T05:51:16;87.53;;;32.50;;
18822;SDS011;9540;51.550;7.980;2022-12-07T05:53:43;88.30;;;33.37;;
18822;SDS011;9540;51.550;7.980;2022-12-07T05:56:10;90.67;;;32.07;;
18822;SDS011;9540;51.550;7.980;2022-12-07T05:58:38;74.80;;;32.03;;
18822;SDS011;9540;51.550;7.980;2022-12-07T06:01:24;67.80;;;27.67;;
18822;SDS011;9540;51.550;7.980;2022-12-07T06:03:51;73.00;;;30.80;;
18822;SDS011;9540;51.550;7.980;2022-12-07T06:06:18;69.50;;;29.33;;
18822;SDS011;9540;51.550;7.980;2022-12-07T06:08:45;72.50;;;28.10;;
18822;SDS011;9540;51.550;7.980;2022-12-07T06:11:13;63.00;;;27.90;;
18822;SDS011;9540;51.550;7.980;2022-12-07T06:13:57;57.30;;;26.33;;
18822;SDS011;9540;51.550;7.980;2022-12-07T06:16:26;69.13;;;28.50;;
18822;SDS011;9540;51.550;7.980;2022-12-07T06:18:53;69.30;;;27.43;;
18822;SDS011;9540;51.550;7.980;2022-12-07T06:21:20;65.90;;;26.73;;
18822;SDS011;9540;51.550;7.980;2022-12-07T06:23:47;69.07;;;27.37;;
18822;SDS011;9540;51.550;7.980;2022-12-07T06:26:14;61.27;;;25.60;;
18822;SDS011;9540;51.550;7.980;2022-12-07T06:28:41;59.17;;;25.80;;
18822;SDS011;9540;51.550;7.980;2022-12-07T06:31:08;58.97;;;25.10;;
18822;SDS011;9540;51.550;7.980;2022-12-07T06:33:37;54.53;;;25.67;;
18822;SDS011;9540;51.550;7.980;2022-12-07T06:36:05;62.57;;;25.50;;
18822;SDS011;9540;51.550;7.980;2022-12-07T06:38:32;57.07;;;23.37;;
18822;SDS011;9540;51.550;7.980;2022-12-07T06:40:59;58.03;;;25.17;;
18822;SDS011;9540;51.550;7.980;2022-12-07T06:43:26;50.67;;;22.10;;
18822;SDS011;9540;51.550;7.980;2022-12-07T06:45:54;63.30;;;24.33;;
18822;SDS011;9540;51.550;7.980;2022-12-07T06:48:21;53.17;;;23.63;;
18822;SDS011;9540;51.550;7.980;2022-12-07T06:50:50;55.57;;;24.63;;
18822;SDS011;9540;51.550;7.980;2022-12-07T06:53:17;56.40;;;23.87;;
18822;SDS011;9540;51.550;7.980;2022-12-07T06:55:44;48.63;;;24.50;;
18822;SDS011;9540;51.550;7.980;2022-12-07T06:58:11;49.73;;;22.97;;
18822;SDS011;9540;51.550;7.980;2022-12-07T07:00:38;48.97;;;22.30;;
18822;SDS011;9540;51.550;7.980;2022-12-07T07:03:06;48.87;;;22.90;;
18822;SDS011;9540;51.550;7.980;2022-12-07T07:05:33;47.13;;;21.47;;
18822;SDS011;9540;51.550;7.980;2022-12-07T07:08:02;43.33;;;20.80;;
18822;SDS011;9540;51.550;7.980;2022-12-07T07:10:29;49.10;;;21.70;;
18822;SDS011;9540;51.550;7.980;2022-12-07T07:12:57;43.83;;;20.93;;
18822;SDS011;9540;51.550;7.980;2022-12-07T07:15:24;54.17;;;25.60;;
18822;SDS011;9540;51.550;7.980;2022-12-07T07:17:51;40.80;;;20.97;;
18822;SDS011;9540;51.550;7.980;2022-12-07T07:20:18;47.47;;;20.20;;
18822;SDS011;9540;51.550;7.980;2022-12-07T07:22:46;39.97;;;21.80;;
18822;SDS011;9540;51.550;7.980;2022-12-07T07:25:14;43.93;;;21.20;;
18822;SDS011;9540;51.550;7.980;2022-12-07T07:27:42;38.57;;;20.40;;
18822;SDS011;9540;51.550;7.980;2022-12-07T07:30:09;39.17;;;19.47;;
18822;SDS011;9540;51.550;7.980;2022-12-07T07:32:36;43.57;;;19.97;;
18822;SDS011;9540;51.550;7.980;2022-12-07T07:35:04;45.67;;;19.33;;
18822;SDS011;9540;51.550;7.980;2022-12-07T07:37:32;42.43;;;20.00;;
18822;SDS011;9540;51.550;7.980;2022-12-07T07:39:59;36.30;;;19.97;;
18822;SDS011;9540;51.550;7.980;2022-12-07T07:42:27;38.67;;;19.40;;
18822;SDS011;9540;51.550;7.980;2022-12-07T07:44:54;39.27;;;19.10;;
18822;SDS011;9540;51.550;7.980;2022-12-07T07:47:21;41.03;;;20.17;;
18822;SDS011;9540;51.550;7.980;2022-12-07T07:49:48;35.80;;;18.40;;
18822;SDS011;9540;51.550;7.980;2022-12-07T07:52:16;35.90;;;18.93;;
18822;SDS011;9540;51.550;7.980;2022-12-07T07:54:43;46.17;;;20.40;;
18822;SDS011;9540;51.550;7.980;2022-12-07T07:57:10;42.20;;;19.40;;
18822;SDS011;9540;51.550;7.980;2022-12-07T07:59:39;41.70;;;18.53;;
18822;SDS011;9540;51.550;7.980;2022-12-07T08:02:06;39.13;;;18.57;;
18822;SDS011;9540;51.550;7.980;2022-12-07T08:04:35;38.30;;;19.70;;
18822;SDS011;9540;51.550;7.980;2022-12-07T08:07:02;38.00;;;17.63;;
18822;SDS011;9540;51.550;7.980;2022-12-07T08:09:29;34.27;;;17.13;;
18822;SDS011;9540;51.550;7.980;2022-12-07T08:11:57;32.50;;;16.50;;
18822;SDS011;9540;51.550;7.980;2022-12-07T08:14:24;37.17;;;17.07;;
18822;SDS011;9540;51.550;7.980;2022-12-07T08:16:54;31.20;;;16.67;;
18822;SDS011;9540;51.550;7.980;2022-12-07T08:19:21;30.10;;;16.33;;
18822;SDS011;9540;51.550;7.980;2022-12-07T08:21:48;26.47;;;15.77;;
18822;SDS011;9540;51.550;7.980;2022-12-07T08:24:15;46.10;;;17.03;;
18822;SDS011;9540;51.550;7.980;2022-12-07T08:26:42;30.63;;;16.10;;
18822;SDS011;9540;51.550;7.980;2022-12-07T08:29:10;37.80;;;17.40;;
18822;SDS011;9540;51.550;7.980;2022-12-07T08:31:37;32.63;;;16.30;;
18822;SDS011;9540;51.550;7.980;2022-12-07T08:34:06;34.97;;;16.37;;
18822;SDS011;9540;51.550;7.980;2022-12-07T08:36:33;29.27;;;16.97;;
18822;SDS011;9540;51.550;7.980;2022-12-07T08:39:00;32.87;;;17.03;;
18822;SDS011;9540;51.550;7.980;2022-12-07T08:41:27;28.37;;;16.60;;
18822;SDS011;9540;51.550;7.980;2022-12-07T08:43:54;31.17;;;16.23;;
18822;SDS011;9540;51.550;7.980;2022-12-07T08:46:23;32.33;;;16.00;;
18822;SDS011;9540;51.550;7.980;2022-12-07T08:48:55;42.93;;;17.20;;
18822;SDS011;9540;51.550;7.980;2022-12-07T08:51:29;35.73;;;17.63;;
18822;SDS011;9540;51.550;7.980;2022-12-07T08:53:56;30.70;;;16.80;;
18822;SDS011;9540;51.550;7.980;2022-12-07T08:56:26;34.73;;;18.57;;
18822;SDS011;9540;51.550;7.980;2022-12-07T08:58:54;30.00;;;15.77;;
18822;SDS011;9540;51.550;7.980;2022-12-07T09:01:21;25.50;;;13.03;;
18822;SDS011;9540;51.550;7.980;2022-12-07T09:03:49;32.40;;;14.87;;
18822;SDS011;9540;51.550;7.980;2022-12-07T09:06:16;27.60;;;13.37;;
18822;SDS011;9540;51.550;7.980;2022-12-07T09:08:46;23.00;;;13.97;;
18822;SDS011;9540;51.550;7.980;2022-12-07T09:11:15;26.57;;;15.67;;
18822;SDS011;9540;51.550;7.980;2022-12-07T09:13:42;24.20;;;11.70;;
18822;SDS011;9540;51.550;7.980;2022-12-07T09:16:09;30.17;;;12.67;;
18822;SDS011;9540;51.550;7.980;2022-12-07T09:18:36;17.87;;;10.00;;
18822;SDS011;9540;51.550;7.980;2022-12-07T09:21:04;16.67;;;8.73;;
18822;SDS011;9540;51.550;7.980;2022-12-07T09:23:31;14.13;;;8.50;;
18822;SDS011;9540;51.550;7.980;2022-12-07T09:26:00;16.83;;;9.23;;
18822;SDS011;9540;51.550;7.980;2022-12-07T09:28:27;19.40;;;8.67;;
18822;SDS011;9540;51.550;7.980;2022-12-07T09:30:54;20.23;;;9.03;;
18822;SDS011;9540;51.550;7.980;2022-12-07T09:33:22;22.07;;;9.47;;
18822;SDS011;9540;51.550;7.980;2022-12-07T09:35:49;18.37;;;9.37;;
18822;SDS011;9540;51.550;7.980;2022-12-07T09:38:18;21.13;;;9.10;;
18822;SDS011;9540;51.550;7.980;2022-12-07T09:40:46;15.70;;;8.90;;
18822;SDS011;9540;51.550;7.980;2022-12-07T09:43:16;26.43;;;10.63;;
18822;SDS011;9540;51.550;7.980;2022-12-07T09:45:46;21.83;;;9.07;;
18822;SDS011;9540;51.550;7.980;2022-12-07T09:48:17;19.73;;;8.90;;
18822;SDS011;9540;51.550;7.980;2022-12-07T09:50:46;15.80;;;9.50;;
18822;SDS011;9540;51.550;7.980;2022-12-07T09:53:17;19.13;;;9.00;;
18822;SDS011;9540;51.550;7.980;2022-12-07T09:55:51;21.40;;;7.83;;
18822;SDS011;9540;51.550;7.980;2022-12-07T09:58:21;20.90;;;9.17;;
18822;SDS011;9540;51.550;7.980;2022-12-07T10:00:52;26.63;;;10.07;;
18822;SDS011;9540;51.550;7.980;2022-12-07T10:03:21;22.30;;;8.57;;
18822;SDS011;9540;51.550;7.980;2022-12-07T10:05:49;18.67;;;9.10;;
18822;SDS011;9540;51.550;7.980;2022-12-07T10:08:18;15.77;;;8.30;;
18822;SDS011;9540;51.550;7.980;2022-12-07T10:10:46;17.77;;;7.90;;
18822;SDS011;9540;51.550;7.980;2022-12-07T10:13:19;23.33;;;8.20;;
18822;SDS011;9540;51.550;7.980;2022-12-07T10:15:49;22.83;;;8.13;;
18822;SDS011;9540;51.550;7.980;2022-12-07T10:18:25;18.20;;;8.37;;
18822;SDS011;9540;51.550;7.980;2022-12-07T10:21:01;15.37;;;7.23;;
18822;SDS011;9540;51.550;7.980;2022-12-07T10:23:37;20.97;;;8.93;;
18822;SDS011;9540;51.550;7.980;2022-12-07T10:29:12;17.07;;;8.53;;
18822;SDS011;9540;51.550;7.980;2022-12-07T10:31:42;18.17;;;8.13;;
18822;SDS011;9540;51.550;7.980;2022-12-07T10:34:15;23.30;;;8.67;;
18822;SDS011;9540;51.550;7.980;2022-12-07T10:36:49;15.70;;;7.93;;
18822;SDS011;9540;51.550;7.980;2022-12-07T10:39:17;14.90;;;8.20;;
18822;SDS011;9540;51.550;7.980;2022-12-07T10:41:55;20.73;;;8.00;;
18822;SDS011;9540;51.550;7.980;2022-12-07T10:44:25;21.33;;;8.10;;
18822;SDS011;9540;51.550;7.980;2022-12-07T10:47:09;16.50;;;8.87;;
18822;SDS011;9540;51.550;7.980;2022-12-07T10:50:00;20.77;;;8.93;;
18822;SDS011;9540;51.550;7.980;2022-12-07T10:52:51;23.27;;;7.70;;
18822;SDS011;9540;51.550;7.980;2022-12-07T10:55:35;17.13;;;8.50;;
18822;SDS011;9540;51.550;7.980;2022-12-07T10:58:17;17.57;;;7.47;;
18822;SDS011;9540;51.550;7.980;2022-12-07T11:00:58;17.50;;;7.77;;
18822;SDS011;9540;51.550;7.980;2022-12-07T11:03:37;17.97;;;7.70;;
18822;SDS011;9540;51.550;7.980;2022-12-07T11:06:17;20.50;;;7.60;;
18822;SDS011;9540;51.550;7.980;2022-12-07T11:08:55;16.48;;;7.30;;
18822;SDS011;9540;51.550;7.980;2022-12-07T11:11:30;14.23;;;6.60;;
18822;SDS011;9540;51.550;7.980;2022-12-07T11:14:04;14.32;;;6.90;;
18822;SDS011;9540;51.550;7.980;2022-12-07T11:16:51;14.90;;;7.88;;
18822;SDS011;9540;51.550;7.980;2022-12-07T11:19:28;13.98;;;7.85;;
18822;SDS011;9540;51.550;7.980;2022-12-07T11:22:17;14.83;;;6.83;;
18822;SDS011;9540;51.550;7.980;2022-12-07T11:24:50;21.05;;;8.75;;
18822;SDS011;9540;51.550;7.980;2022-12-07T11:27:29;15.97;;;7.47;;
18822;SDS011;9540;51.550;7.980;2022-12-07T11:30:08;14.55;;;6.43;;
18822;SDS011;9540;51.550;7.980;2022-12-07T11:32:45;16.00;;;6.53;;
18822;SDS011;9540;51.550;7.980;2022-12-07T11:35:22;16.17;;;7.27;;
18822;SDS011;9540;51.550;7.980;2022-12-07T11:37:58;14.70;;;7.20;;
18822;SDS011;9540;51.550;7.980;2022-12-07T11:40:29;18.23;;;7.28;;
18822;SDS011;9540;51.550;7.980;2022-12-07T11:43:02;15.57;;;7.97;;
18822;SDS011;9540;51.550;7.980;2022-12-07T11:45:33;17.73;;;8.43;;
18822;SDS011;9540;51.550;7.980;2022-12-07T11:48:05;19.07;;;11.57;;
18822;SDS011;9540;51.550;7.980;2022-12-07T11:50:41;21.60;;;10.30;;
18822;SDS011;9540;51.550;7.980;2022-12-07T11:53:14;19.00;;;10.83;;
18822;SDS011;9540;51.550;7.980;2022-12-07T11:55:48;22.80;;;11.83;;
18822;SDS011;9540;51.550;7.980;2022-12-07T11:58:23;23.70;;;11.52;;
18822;SDS011;9540;51.550;7.980;2022-12-07T12:01:08;23.30;;;10.37;;
18822;SDS011;9540;51.550;7.980;2022-12-07T12:03:44;19.33;;;10.73;;
18822;SDS011;9540;51.550;7.980;2022-12-07T12:06:13;21.35;;;9.93;;
18822;SDS011;9540;51.550;7.980;2022-12-07T12:08:42;15.97;;;9.53;;
18822;SDS011;9540;51.550;7.980;2022-12-07T12:11:19;22.20;;;10.67;;
18822;SDS011;9540;51.550;7.980;2022-12-07T12:14:06;20.33;;;9.75;;
18822;SDS011;9540;51.550;7.980;2022-12-07T12:19:45;17.88;;;8.77;;
18822;SDS011;9540;51.550;7.980;2022-12-07T12:22:29;17.60;;;8.57;;
18822;SDS011;9540;51.550;7.980;2022-12-07T12:25:03;16.87;;;8.33;;
18822;SDS011;9540;51.550;7.980;2022-12-07T12:27:35;19.23;;;8.53;;
18822;SDS011;9540;51.550;7.980;2022-12-07T12:30:06;17.90;;;8.87;;
18822;SDS011;9540;51.550;7.980;2022-12-07T12:32:50;24.23;;;9.33;;
18822;SDS011;9540;51.550;7.980;2022-12-07T12:35:27;18.83;;;9.00;;
18822;SDS011;9540;51.550;7.980;2022-12-07T12:40:52;13.60;;;8.17;;
18822;SDS011;9540;51.550;7.980;2022-12-07T12:43:44;14.37;;;7.07;;
18822;SDS011;9540;51.550;7.980;2022-12-07T12:49:30;18.42;;;7.00;;
18822;SDS011;9540;51.550;7.980;2022-12-07T12:58:27;16.55;;;7.97;;
18822;SDS011;9540;51.550;7.980;2022-12-07T13:10:21;15.07;;;7.57;;
18822;SDS011;9540;51.550;7.980;2022-12-07T13:13:02;16.03;;;7.73;;
18822;SDS011;9540;51.550;7.980;2022-12-07T13:15:33;18.17;;;7.30;;
18822;SDS011;9540;51.550;7.980;2022-12-07T13:18:03;12.57;;;6.73;;
18822;SDS011;9540;51.550;7.980;2022-12-07T13:23:25;13.80;;;7.20;;
18822;SDS011;9540;51.550;7.980;2022-12-07T13:25:58;10.93;;;7.17;;
18822;SDS011;9540;51.550;7.980;2022-12-07T13:28:32;21.53;;;7.00;;
18822;SDS011;9540;51.550;7.980;2022-12-07T13:31:16;14.97;;;6.07;;
18822;SDS011;9540;51.550;7.980;2022-12-07T13:33:49;24.10;;;7.22;;
18822;SDS011;9540;51.550;7.980;2022-12-07T13:36:18;10.63;;;5.47;;
18822;SDS011;9540;51.550;7.980;2022-12-07T13:38:49;16.10;;;5.67;;
18822;SDS011;9540;51.550;7.980;2022-12-07T13:41:19;11.63;;;5.67;;
18822;SDS011;9540;51.550;7.980;2022-12-07T13:43:49;10.87;;;5.00;;
18822;SDS011;9540;51.550;7.980;2022-12-07T13:46:20;11.80;;;5.50;;
18822;SDS011;9540;51.550;7.980;2022-12-07T13:48:53;13.23;;;6.13;;
18822;SDS011;9540;51.550;7.980;2022-12-07T13:51:23;16.43;;;5.90;;
18822;SDS011;9540;51.550;7.980;2022-12-07T13:53:52;10.87;;;6.83;;
18822;SDS011;9540;51.550;7.980;2022-12-07T13:56:21;20.13;;;5.83;;
18822;SDS011;9540;51.550;7.980;2022-12-07T13:58:52;11.97;;;7.07;;
18822;SDS011;9540;51.550;7.980;2022-12-07T14:01:21;17.73;;;7.90;;
18822;SDS011;9540;51.550;7.980;2022-12-07T14:03:48;12.57;;;7.27;;
18822;SDS011;9540;51.550;7.980;2022-12-07T14:06:25;10.90;;;6.83;;
18822;SDS011;9540;51.550;7.980;2022-12-07T14:09:06;14.07;;;8.07;;
18822;SDS011;9540;51.550;7.980;2022-12-07T14:11:34;17.97;;;7.97;;
18822;SDS011;9540;51.550;7.980;2022-12-07T14:14:02;17.20;;;7.53;;
18822;SDS011;9540;51.550;7.980;2022-12-07T14:16:34;18.07;;;7.53;;
18822;SDS011;9540;51.550;7.980;2022-12-07T14:19:04;13.43;;;7.07;;
18822;SDS011;9540;51.550;7.980;2022-12-07T14:22:05;20.37;;;6.60;;
18822;SDS011;9540;51.550;7.980;2022-12-07T14:24:40;14.13;;;7.60;;
18822;SDS011;9540;51.550;7.980;2022-12-07T14:27:15;21.80;;;8.57;;
18822;SDS011;9540;51.550;7.980;2022-12-07T14:29:44;15.50;;;6.57;;
18822;SDS011;9540;51.550;7.980;2022-12-07T14:32:23;15.87;;;8.40;;
18822;SDS011;9540;51.550;7.980;2022-12-07T14:34:58;17.50;;;7.80;;
18822;SDS011;9540;51.550;7.980;2022-12-07T14:37:27;17.43;;;8.77;;
18822;SDS011;9540;51.550;7.980;2022-12-07T14:39:56;15.03;;;6.33;;
18822;SDS011;9540;51.550;7.980;2022-12-07T14:42:23;11.77;;;4.57;;
18822;SDS011;9540;51.550;7.980;2022-12-07T14:44:53;19.00;;;7.17;;
18822;SDS011;9540;51.550;7.980;2022-12-07T14:47:20;10.73;;;6.17;;
18822;SDS011;9540;51.550;7.980;2022-12-07T14:49:49;11.77;;;7.47;;
18822;SDS011;9540;51.550;7.980;2022-12-07T14:52:17;15.63;;;8.30;;
18822;SDS011;9540;51.550;7.980;2022-12-07T14:54:48;14.90;;;7.50;;
18822;SDS011;9540;51.550;7.980;2022-12-07T14:57:16;17.43;;;8.93;;
18822;SDS011;9540;51.550;7.980;2022-12-07T14:59:43;16.40;;;7.87;;
18822;SDS011;9540;51.550;7.980;2022-12-07T15:02:11;18.83;;;7.27;;
18822;SDS011;9540;51.550;7.980;2022-12-07T15:04:42;52.67;;;22.20;;
18822;SDS011;9540;51.550;7.980;2022-12-07T15:07:10;18.17;;;9.87;;
18822;SDS011;9540;51.550;7.980;2022-12-07T15:09:41;22.67;;;8.27;;
18822;SDS011;9540;51.550;7.980;2022-12-07T15:12:09;18.80;;;7.97;;
18822;SDS011;9540;51.550;7.980;2022-12-07T15:14:36;29.30;;;11.27;;
18822;SDS011;9540;51.550;7.980;2022-12-07T15:17:03;11.17;;;6.60;;
18822;SDS011;9540;51.550;7.980;2022-12-07T15:19:30;13.00;;;7.10;;
18822;SDS011;9540;51.550;7.980;2022-12-07T15:21:58;14.63;;;6.93;;
18822;SDS011;9540;51.550;7.980;2022-12-07T15:24:26;15.20;;;7.37;;
18822;SDS011;9540;51.550;7.980;2022-12-07T15:26:53;21.23;;;9.83;;
18822;SDS011;9540;51.550;7.980;2022-12-07T15:29:20;19.73;;;7.43;;